createdAt,value
2018-06-18T00:01:24.201Z,88.70
2018-06-18T00:03:52.399Z,88.70
2018-06-18T00:06:20.596Z,88.70
2018-06-18T00:08:48.974Z,88.60
2018-06-18T00:11:17.200Z,88.50
2018-06-18T00:13:45.420Z,88.60
2018-06-18T00:16:13.649Z,88.50
2018-06-18T00:18:41.855Z,88.50
2018-06-18T00:21:10.046Z,88.50
2018-06-18T00:23:38.223Z,88.50
2018-06-18T00:26:06.428Z,88.50
2018-06-18T00:28:34.636Z,88.50
2018-06-18T00:31:02.852Z,88.40
2018-06-18T00:33:31.076Z,88.30
2018-06-18T00:35:59.327Z,88.40
2018-06-18T00:38:27.516Z,88.30
2018-06-18T00:40:55.707Z,88.30
2018-06-18T00:43:23.933Z,88.40
2018-06-18T00:45:52.128Z,88.60
2018-06-18T00:48:20.336Z,88.70
2018-06-18T00:50:48.631Z,88.80
2018-06-18T00:53:16.835Z,89.00
2018-06-18T00:55:56.353Z,89.20
2018-06-18T00:58:24.580Z,89.50
2018-06-18T01:00:52.994Z,89.80
2018-06-18T01:03:21.188Z,90.00
2018-06-18T01:05:49.392Z,90.00
2018-06-18T01:08:17.663Z,89.90
2018-06-18T01:10:45.824Z,89.80
2018-06-18T01:13:14.016Z,90.20
2018-06-18T01:15:42.226Z,90.00
2018-06-18T01:18:10.425Z,90.10
2018-06-18T01:20:38.632Z,90.20
2018-06-18T01:24:20.266Z,90.30
2018-06-18T01:26:48.490Z,90.30
2018-06-18T01:29:16.676Z,90.40
2018-06-18T01:31:44.903Z,90.40
2018-06-18T01:34:17.295Z,90.30
2018-06-18T01:36:45.508Z,90.20
2018-06-18T01:39:13.701Z,90.00
2018-06-18T01:41:41.901Z,90.00
2018-06-18T01:46:38.044Z,89.50
2018-06-18T01:49:06.279Z,89.40
2018-06-18T01:51:34.475Z,89.60
2018-06-18T01:54:02.675Z,89.20
2018-06-18T01:56:30.883Z,89.20
2018-06-18T01:58:59.088Z,89.40
2018-06-18T02:01:27.320Z,89.80
2018-06-18T02:03:55.548Z,89.90
2018-06-18T02:06:23.784Z,90.10
2018-06-18T02:08:52.004Z,90.20
2018-06-18T02:11:20.215Z,90.20
2018-06-18T02:13:48.399Z,90.30
2018-06-18T02:18:44.552Z,90.50
2018-06-18T02:21:12.768Z,90.50
2018-06-18T02:23:40.983Z,90.10
2018-06-18T02:26:10.005Z,89.90
2018-06-18T02:28:43.408Z,89.80
2018-06-18T02:31:17.095Z,89.80
2018-06-18T02:33:50.828Z,89.90
2018-06-18T02:36:24.319Z,89.90
2018-06-18T02:38:57.941Z,90.00
2018-06-18T02:41:26.145Z,90.20
2018-06-18T02:43:54.349Z,90.20
2018-06-18T02:46:22.685Z,90.30
2018-06-18T02:48:50.896Z,90.30
2018-06-18T02:51:19.104Z,90.30
2018-06-18T02:53:47.380Z,90.50
2018-06-18T02:56:15.903Z,90.70
2018-06-18T02:58:44.108Z,90.70
2018-06-18T03:01:12.318Z,90.60
2018-06-18T03:06:08.457Z,90.50
2018-06-18T03:08:36.665Z,90.40
2018-06-18T03:11:04.904Z,90.40
2018-06-18T03:13:33.105Z,90.40
2018-06-18T03:16:01.296Z,90.40
2018-06-18T03:18:35.664Z,90.40
2018-06-18T03:23:42.612Z,90.50
2018-06-18T03:26:16.260Z,90.50
2018-06-18T03:28:49.812Z,90.70
2018-06-18T03:31:18.021Z,90.80
2018-06-18T03:33:46.268Z,90.90
2018-06-18T03:36:14.472Z,91.00
2018-06-18T03:38:42.656Z,90.90
2018-06-18T03:41:10.876Z,90.80
2018-06-18T03:43:43.169Z,90.80
2018-06-18T03:46:11.357Z,90.70
2018-06-18T03:48:39.584Z,90.70
2018-06-18T03:51:07.792Z,90.70
2018-06-18T03:53:35.983Z,90.70
2018-06-18T03:58:32.203Z,91.10
2018-06-18T04:01:46.547Z,90.70
2018-06-18T04:04:20.365Z,90.70
2018-06-18T04:06:54.052Z,90.50
2018-06-18T04:10:27.472Z,90.50
2018-06-18T04:12:55.688Z,90.80
2018-06-18T04:15:23.892Z,90.70
2018-06-18T04:17:52.116Z,90.80
2018-06-18T04:20:20.304Z,90.90
2018-06-18T04:22:48.569Z,91.00
2018-06-18T04:25:17.001Z,91.20
2018-06-18T04:30:13.443Z,91.40
2018-06-18T04:32:41.635Z,91.50
2018-06-18T04:35:10.955Z,91.50
2018-06-18T04:37:39.237Z,91.50
2018-06-18T04:40:07.742Z,91.30
2018-06-18T04:42:41.395Z,91.10
2018-06-18T04:45:15.097Z,90.80
2018-06-18T04:47:48.748Z,90.60
2018-06-18T04:50:22.460Z,90.30
2018-06-18T04:52:50.694Z,89.80
2018-06-18T04:55:18.909Z,88.90
2018-06-18T04:57:47.116Z,88.00
2018-06-18T05:00:32.194Z,87.30
2018-06-18T05:05:28.362Z,85.50
2018-06-18T05:08:07.428Z,84.40
2018-06-18T05:10:35.644Z,82.90
2018-06-18T05:13:03.857Z,81.90
2018-06-18T05:15:36.652Z,80.50
2018-06-18T05:18:04.998Z,79.20
2018-06-18T05:20:33.203Z,78.30
2018-06-18T05:23:01.412Z,77.60
2018-06-18T05:25:30.821Z,77.00
2018-06-18T05:27:59.041Z,76.50
2018-06-18T05:30:29.581Z,76.10
2018-06-18T05:32:57.844Z,75.80
2018-06-18T05:35:26.859Z,75.10
2018-06-18T05:37:58.703Z,74.90
2018-06-18T05:40:26.956Z,73.90
2018-06-18T05:42:55.144Z,73.40
2018-06-18T05:45:24.048Z,72.70
2018-06-18T05:47:52.251Z,72.20
2018-06-18T05:50:20.562Z,72.00
2018-06-18T05:52:48.688Z,71.80
2018-06-18T05:55:16.904Z,71.50
2018-06-18T05:57:45.157Z,70.90
2018-06-18T06:00:13.356Z,70.80
2018-06-18T06:02:41.688Z,70.50
2018-06-18T06:05:09.939Z,70.40
2018-06-18T06:07:38.128Z,69.70
2018-06-18T06:10:06.340Z,69.40
2018-06-18T06:12:34.564Z,68.90
2018-06-18T06:15:02.877Z,68.20
2018-06-18T06:17:31.071Z,67.80
2018-06-18T06:19:59.297Z,67.70
2018-06-18T06:22:27.682Z,66.80
2018-06-18T06:27:23.813Z,65.70
2018-06-18T06:29:52.095Z,65.10
2018-06-18T06:34:52.649Z,63.90
2018-06-18T06:37:20.872Z,63.70
2018-06-18T06:39:49.063Z,63.10
2018-06-18T06:42:18.515Z,62.80
2018-06-18T06:44:46.896Z,61.20
2018-06-18T06:47:15.415Z,61.10
2018-06-18T06:49:43.909Z,61.80
2018-06-18T06:52:12.192Z,59.60
2018-06-18T06:57:08.412Z,59.00
2018-06-18T06:59:36.596Z,59.40
2018-06-18T07:02:04.808Z,59.20
2018-06-18T07:04:33.041Z,58.70
2018-06-18T07:09:29.312Z,59.10
2018-06-18T07:11:57.499Z,59.70
2018-06-18T07:14:25.693Z,59.80
2018-06-18T07:16:53.907Z,59.60
2018-06-18T07:19:22.091Z,59.70
2018-06-18T07:21:50.293Z,59.50
2018-06-18T07:24:18.489Z,59.50
2018-06-18T07:26:46.700Z,59.40
2018-06-18T07:29:14.893Z,59.50
2018-06-18T07:31:43.119Z,60.10
2018-06-18T07:34:11.333Z,59.30
2018-06-18T07:36:39.560Z,59.80
2018-06-18T07:39:08.128Z,59.90
2018-06-18T07:41:36.329Z,59.80
2018-06-18T07:44:04.545Z,60.00
2018-06-18T07:46:32.768Z,60.60
2018-06-18T07:49:00.952Z,60.60
2018-06-18T07:51:29.210Z,60.90
2018-06-18T07:53:57.358Z,61.30
2018-06-18T07:56:25.747Z,61.60
2018-06-18T07:58:53.948Z,62.40
2018-06-18T08:01:22.145Z,61.20
2018-06-18T08:03:50.344Z,60.40
2018-06-18T08:06:18.540Z,59.80
2018-06-18T08:08:47.641Z,58.80
2018-06-18T08:11:15.826Z,58.40
2018-06-18T08:13:44.116Z,58.00
2018-06-18T08:16:12.301Z,58.20
2018-06-18T08:18:40.498Z,58.20
2018-06-18T08:21:08.696Z,58.30
2018-06-18T08:23:36.925Z,58.40
2018-06-18T08:26:05.166Z,58.00
2018-06-18T08:28:33.460Z,57.90
2018-06-18T08:31:01.692Z,58.40
2018-06-18T08:33:29.909Z,58.00
2018-06-18T08:35:58.124Z,58.50
2018-06-18T08:38:26.427Z,58.80
2018-06-18T08:40:54.704Z,58.70
2018-06-18T08:43:23.974Z,58.20
2018-06-18T08:45:52.168Z,58.20
2018-06-18T08:48:25.976Z,57.50
2018-06-18T08:53:33.092Z,57.60
2018-06-18T08:56:06.730Z,57.90
2018-06-18T08:58:40.268Z,58.10
2018-06-18T09:01:13.692Z,57.90
2018-06-18T09:03:47.507Z,57.60
2018-06-18T09:06:15.733Z,57.60
2018-06-18T09:08:49.735Z,57.40
2018-06-18T09:11:19.189Z,57.50
2018-06-18T09:13:47.381Z,56.90
2018-06-18T09:16:15.593Z,56.70
2018-06-18T09:18:43.815Z,56.60
2018-06-18T09:21:12.036Z,56.00
2018-06-18T09:23:40.231Z,55.80
2018-06-18T09:26:08.408Z,55.70
2018-06-18T09:28:36.632Z,55.10
2018-06-18T09:31:04.843Z,54.90
2018-06-18T09:33:33.093Z,55.10
2018-06-18T09:36:01.284Z,55.50
2018-06-18T09:38:29.520Z,55.10
2018-06-18T09:40:57.704Z,54.70
2018-06-18T09:43:25.924Z,54.60
2018-06-18T09:45:54.128Z,54.90
2018-06-18T09:48:26.580Z,55.30
2018-06-18T09:51:00.226Z,56.20
2018-06-18T09:53:33.934Z,56.80
2018-06-18T09:58:40.964Z,56.90
2018-06-18T10:01:16.064Z,57.10
2018-06-18T10:03:44.400Z,56.30
2018-06-18T10:06:12.895Z,55.50
2018-06-18T10:08:41.146Z,54.60
2018-06-18T10:11:09.310Z,54.00
2018-06-18T10:13:37.496Z,53.80
2018-06-18T10:16:06.111Z,53.40
2018-06-18T10:18:34.309Z,53.20
2018-06-18T10:21:02.531Z,54.30
2018-06-18T10:23:30.737Z,54.00
2018-06-18T10:25:58.944Z,54.30
2018-06-18T10:28:27.157Z,54.70
2018-06-18T10:30:55.363Z,54.30
2018-06-18T10:33:28.736Z,54.60
2018-06-18T10:36:02.405Z,54.80
2018-06-18T10:38:36.040Z,54.40
2018-06-18T10:41:09.548Z,53.90
2018-06-18T10:43:38.305Z,53.50
2018-06-18T10:46:06.504Z,53.10
2018-06-18T10:48:34.696Z,52.90
2018-06-18T10:51:02.899Z,53.20
2018-06-18T10:53:31.109Z,54.30
2018-06-18T10:55:59.328Z,54.20
2018-06-18T11:01:02.428Z,54.30
2018-06-18T11:03:30.663Z,54.20
2018-06-18T11:06:04.227Z,54.00
2018-06-18T11:08:32.544Z,53.90
2018-06-18T11:11:00.767Z,54.00
2018-06-18T11:13:28.967Z,53.50
2018-06-18T11:15:57.308Z,53.60
2018-06-18T11:18:30.840Z,53.50
2018-06-18T11:21:04.591Z,52.40
2018-06-18T11:23:38.156Z,52.80
2018-06-18T11:26:11.836Z,52.20
2018-06-18T11:28:40.081Z,51.50
2018-06-18T11:31:08.266Z,51.20
2018-06-18T11:36:04.452Z,50.10
2018-06-18T11:38:32.657Z,50.10
2018-06-18T11:41:01.007Z,50.00
2018-06-18T11:43:29.238Z,50.10
2018-06-18T11:45:57.516Z,50.10
2018-06-18T11:48:25.685Z,50.30
2018-06-18T11:50:53.900Z,50.70
2018-06-18T11:53:22.131Z,51.10
2018-06-18T11:55:50.768Z,51.20
2018-06-18T11:58:24.067Z,51.20
2018-06-18T12:00:57.721Z,50.60
2018-06-18T12:03:31.276Z,50.30
2018-06-18T12:06:04.804Z,49.80
2018-06-18T12:08:38.401Z,49.70
2018-06-18T12:13:34.540Z,50.00
2018-06-18T12:16:02.802Z,50.00
2018-06-18T12:18:31.000Z,50.00
2018-06-18T12:20:59.268Z,50.20
2018-06-18T12:23:27.456Z,49.80
2018-06-18T12:25:55.648Z,50.30
2018-06-18T12:28:23.864Z,50.70
2018-06-18T12:30:52.091Z,50.70
2018-06-18T12:33:20.300Z,50.80
2018-06-18T12:35:48.516Z,50.70
2018-06-18T12:38:16.755Z,50.40
2018-06-18T12:40:45.021Z,50.90
2018-06-18T12:43:14.298Z,50.70
2018-06-18T12:45:48.669Z,50.70
2018-06-18T12:48:22.420Z,50.40
2018-06-18T12:50:56.204Z,50.10
2018-06-18T12:56:03.202Z,49.70
2018-06-18T12:58:31.420Z,49.40
2018-06-18T13:01:00.410Z,48.70
2018-06-18T13:03:28.658Z,49.00
2018-06-18T13:05:56.830Z,48.80
2018-06-18T13:08:25.026Z,48.70
2018-06-18T13:10:53.223Z,48.10
2018-06-18T13:13:21.432Z,47.90
2018-06-18T13:15:49.640Z,48.00
2018-06-18T13:18:17.859Z,47.90
2018-06-18T13:20:46.056Z,47.90
2018-06-18T13:23:14.280Z,48.50
2018-06-18T13:25:42.477Z,47.10
2018-06-18T13:28:16.700Z,46.10
2018-06-18T13:30:45.518Z,45.50
2018-06-18T13:33:13.809Z,44.60
2018-06-18T13:35:42.089Z,44.30
2018-06-18T13:38:15.814Z,44.60
2018-06-18T13:40:49.568Z,45.00
2018-06-18T13:44:25.183Z,45.40
2018-06-18T13:46:58.876Z,45.40
2018-06-18T13:49:32.492Z,45.10
2018-06-18T13:52:00.708Z,44.90
2018-06-18T13:54:28.924Z,44.90
2018-06-18T13:56:57.144Z,44.40
2018-06-18T13:59:25.331Z,44.40
2018-06-18T14:01:53.541Z,44.50
2018-06-18T14:04:21.752Z,43.60
2018-06-18T14:06:49.957Z,42.70
2018-06-18T14:09:18.176Z,43.00
2018-06-18T14:11:46.385Z,43.30
2018-06-18T14:14:14.609Z,42.80
2018-06-18T14:16:42.823Z,42.80
2018-06-18T14:19:16.401Z,42.50
2018-06-18T14:21:44.592Z,42.60
2018-06-18T14:24:12.792Z,43.00
2018-06-18T14:26:40.975Z,43.50
2018-06-18T14:29:13.416Z,43.40
2018-06-18T14:31:47.051Z,43.10
2018-06-18T14:35:22.172Z,42.60
2018-06-18T14:37:56.356Z,42.30
2018-06-18T14:40:24.598Z,42.40
2018-06-18T14:42:52.794Z,42.60
2018-06-18T14:45:21.005Z,42.70
2018-06-18T14:47:49.226Z,41.50
2018-06-18T14:50:17.472Z,41.20
2018-06-18T14:52:45.689Z,40.50
2018-06-18T14:55:14.669Z,40.20
2018-06-18T14:57:43.308Z,39.90
2018-06-18T15:00:15.739Z,38.90
2018-06-18T15:02:43.987Z,38.00
2018-06-18T15:05:12.153Z,38.00
2018-06-18T15:07:40.499Z,37.80
2018-06-18T15:12:43.447Z,37.30
2018-06-18T15:15:17.171Z,36.50
2018-06-18T15:17:45.456Z,36.40
2018-06-18T15:20:13.644Z,36.50
2018-06-18T15:22:44.757Z,36.30
2018-06-18T15:25:14.833Z,36.10
2018-06-18T15:27:43.020Z,36.60
2018-06-18T15:30:11.476Z,36.90
2018-06-18T15:32:39.705Z,37.80
2018-06-18T15:35:07.928Z,38.50
2018-06-18T15:37:36.140Z,39.10
2018-06-18T15:40:04.405Z,39.10
2018-06-18T15:42:32.625Z,39.70
2018-06-18T15:45:00.856Z,40.00
2018-06-18T15:47:29.119Z,40.20
2018-06-18T15:49:57.327Z,40.10
2018-06-18T15:52:25.620Z,39.80
2018-06-18T15:54:54.072Z,39.10
2018-06-18T15:57:22.281Z,38.90
2018-06-18T15:59:50.488Z,38.60
2018-06-18T16:02:18.774Z,38.20
2018-06-18T16:04:46.904Z,38.50
2018-06-18T16:07:15.108Z,38.00
2018-06-18T16:09:43.300Z,37.90
2018-06-18T16:12:11.517Z,37.60
2018-06-18T16:14:39.703Z,37.40
2018-06-18T16:17:07.972Z,37.80
2018-06-18T16:19:36.305Z,38.00
2018-06-18T16:22:04.508Z,38.60
2018-06-18T16:24:32.835Z,39.10
2018-06-18T16:27:01.012Z,40.10
2018-06-18T16:29:29.235Z,40.30
2018-06-18T16:31:57.429Z,40.20
2018-06-18T16:34:25.684Z,40.00
2018-06-18T16:36:53.890Z,40.00
2018-06-18T16:39:22.076Z,39.30
2018-06-18T16:41:50.333Z,39.30
2018-06-18T16:44:18.539Z,40.10
2018-06-18T16:46:46.760Z,41.20
2018-06-18T16:49:14.971Z,42.20
2018-06-18T16:51:43.199Z,43.30
2018-06-18T16:54:11.376Z,44.70
2018-06-18T16:56:39.585Z,44.20
2018-06-18T16:59:07.815Z,43.10
2018-06-18T17:01:36.036Z,41.40
2018-06-18T17:04:04.245Z,39.40
2018-06-18T17:06:32.544Z,37.60
2018-06-18T17:09:00.772Z,36.20
2018-06-18T17:11:28.964Z,35.50
2018-06-18T17:13:57.193Z,36.30
2018-06-18T17:16:25.465Z,36.10
2018-06-18T17:18:53.672Z,35.70
2018-06-18T17:21:21.884Z,35.30
2018-06-18T17:23:50.463Z,34.60
2018-06-18T17:26:18.657Z,33.90
2018-06-18T17:28:46.848Z,33.60
2018-06-18T17:31:15.049Z,33.50
2018-06-18T17:33:43.260Z,33.60
2018-06-18T17:36:11.469Z,34.30
2018-06-18T17:38:39.703Z,34.40
2018-06-18T17:41:07.920Z,34.10
2018-06-18T17:43:36.148Z,34.10
2018-06-18T17:46:04.396Z,35.10
2018-06-18T17:48:32.608Z,35.50
2018-06-18T17:51:00.936Z,35.90
2018-06-18T17:53:29.883Z,35.90
2018-06-18T17:55:58.112Z,35.70
2018-06-18T17:58:26.376Z,35.80
2018-06-18T18:00:54.580Z,35.60
2018-06-18T18:03:22.778Z,35.50
2018-06-18T18:05:51.036Z,35.40
2018-06-18T18:08:19.228Z,35.50
2018-06-18T18:10:47.436Z,35.40
2018-06-18T18:13:15.771Z,35.40
2018-06-18T18:15:43.891Z,35.80
2018-06-18T18:18:12.197Z,36.00
2018-06-18T18:20:40.407Z,35.90
2018-06-18T18:23:08.652Z,35.80
2018-06-18T18:25:36.854Z,35.80
2018-06-18T18:28:05.384Z,36.20
2018-06-18T18:30:33.603Z,36.60
2018-06-18T18:33:01.820Z,37.00
2018-06-18T18:35:30.052Z,37.30
2018-06-18T18:37:58.280Z,37.70
2018-06-18T18:40:26.489Z,38.40
2018-06-18T18:42:54.713Z,39.60
2018-06-18T18:45:23.505Z,40.90
2018-06-18T18:47:51.668Z,42.50
2018-06-18T18:50:19.856Z,44.00
2018-06-18T18:52:48.068Z,45.50
2018-06-18T18:55:37.976Z,47.00
2018-06-18T18:58:18.977Z,48.30
2018-06-18T19:00:47.977Z,50.40
2018-06-18T19:03:17.938Z,50.90
2018-06-18T19:05:46.903Z,52.50
2018-06-18T19:08:17.833Z,52.80
2018-06-18T19:10:46.392Z,53.70
2018-06-18T19:13:18.949Z,54.40
2018-06-18T19:15:48.256Z,55.10
2018-06-18T19:18:16.487Z,55.90
2018-06-18T19:20:49.212Z,56.60
2018-06-18T19:23:17.439Z,57.10
2018-06-18T19:25:45.642Z,57.80
2018-06-18T19:28:13.865Z,58.50
2018-06-18T19:30:44.544Z,59.20
2018-06-18T19:33:15.560Z,59.80
2018-06-18T19:35:43.796Z,60.80
2018-06-18T19:38:12.264Z,61.70
2018-06-18T19:40:40.524Z,62.70
2018-06-18T19:43:08.725Z,63.70
2018-06-18T19:45:40.188Z,64.60
2018-06-18T19:48:11.846Z,66.00
2018-06-18T19:50:40.117Z,67.20
2018-06-18T19:53:08.313Z,68.20
2018-06-18T19:55:36.520Z,69.20
2018-06-18T19:58:04.813Z,70.20
2018-06-18T20:00:36.712Z,71.10
2018-06-18T20:03:04.914Z,72.00
2018-06-18T20:08:04.433Z,73.40
2018-06-18T20:10:32.604Z,74.10
2018-06-18T20:13:00.945Z,74.60
2018-06-18T20:15:29.112Z,75.10
2018-06-18T20:17:57.336Z,75.70
2018-06-18T20:20:25.557Z,76.50
2018-06-18T20:22:53.807Z,77.30
2018-06-18T20:25:29.405Z,78.00
2018-06-18T20:27:57.592Z,78.70
2018-06-18T20:30:25.816Z,79.20
2018-06-18T20:32:54.040Z,80.10
2018-06-18T20:35:25.773Z,80.70
2018-06-18T20:37:54.791Z,81.40
2018-06-18T20:40:23.039Z,82.10
2018-06-18T20:42:51.572Z,82.80
2018-06-18T20:45:19.767Z,83.70
2018-06-18T20:47:47.990Z,84.40
2018-06-18T20:50:16.225Z,84.90
2018-06-18T20:52:44.783Z,85.50
2018-06-18T20:55:12.976Z,86.20
2018-06-18T20:57:41.219Z,86.90
2018-06-18T21:00:09.435Z,88.20
2018-06-18T21:02:37.664Z,87.80
2018-06-18T21:05:05.916Z,88.30
2018-06-18T21:07:34.427Z,88.50
2018-06-18T21:10:02.727Z,89.10
2018-06-18T21:12:30.976Z,89.00
2018-06-18T21:14:59.981Z,89.90
2018-06-18T21:17:28.196Z,90.10
2018-06-18T21:19:56.436Z,90.30
2018-06-18T21:22:24.706Z,90.50
2018-06-18T21:24:52.928Z,90.70
2018-06-18T21:27:21.136Z,90.90
2018-06-18T21:29:49.356Z,91.00
2018-06-18T21:32:17.537Z,91.20
2018-06-18T21:34:45.784Z,91.20
2018-06-18T21:37:13.971Z,91.30
2018-06-18T21:39:42.171Z,91.50
2018-06-18T21:42:10.417Z,91.60
2018-06-18T21:44:45.656Z,91.70
2018-06-18T21:47:14.625Z,91.80
2018-06-18T21:49:42.848Z,92.00
2018-06-18T21:52:11.068Z,92.10
2018-06-18T21:54:39.269Z,92.30
2018-06-18T21:57:07.455Z,92.40
2018-06-18T21:59:35.685Z,92.50
2018-06-18T22:04:31.836Z,92.60
2018-06-18T22:07:00.070Z,92.70
2018-06-18T22:09:28.257Z,92.70
2018-06-18T22:11:56.521Z,92.70
2018-06-18T22:14:25.079Z,92.80
2018-06-18T22:16:53.341Z,92.90
2018-06-18T22:19:21.548Z,93.00
2018-06-18T22:21:49.737Z,93.20
2018-06-18T22:24:17.988Z,93.20
2018-06-18T22:26:46.180Z,93.30
2018-06-18T22:29:15.400Z,93.40
2018-06-18T22:31:43.621Z,93.50
2018-06-18T22:34:11.860Z,93.60
2018-06-18T22:36:40.066Z,93.70
2018-06-18T22:39:09.816Z,93.70
2018-06-18T22:41:38.020Z,93.70
2018-06-18T22:44:06.848Z,93.80
2018-06-18T22:46:35.080Z,93.80
2018-06-18T22:49:03.281Z,93.90
2018-06-18T22:51:31.543Z,94.00
2018-06-18T22:53:59.780Z,94.10
2018-06-18T22:56:27.969Z,94.20
2018-06-18T22:58:56.204Z,94.20
2018-06-18T23:01:24.430Z,94.30
2018-06-18T23:03:52.660Z,94.40
2018-06-18T23:06:21.139Z,94.40
2018-06-18T23:08:49.363Z,94.50
2018-06-18T23:11:17.580Z,94.50
2018-06-18T23:13:45.819Z,94.50
2018-06-18T23:16:14.016Z,94.60
2018-06-18T23:18:42.248Z,94.70
2018-06-18T23:21:10.483Z,94.70
2018-06-18T23:23:38.675Z,94.80
2018-06-18T23:26:06.897Z,94.80
2018-06-18T23:28:40.204Z,94.80
2018-06-18T23:31:08.423Z,94.90
2018-06-18T23:33:36.624Z,95.00
2018-06-18T23:36:04.920Z,95.10
2018-06-18T23:38:33.139Z,95.20
2018-06-18T23:41:01.387Z,95.60
2018-06-18T23:43:29.568Z,95.30
2018-06-18T23:45:58.135Z,95.30
2018-06-18T23:48:26.336Z,95.30
2018-06-18T23:50:54.565Z,95.40
2018-06-18T23:53:22.780Z,95.40
2018-06-18T23:55:50.984Z,95.50
2018-06-18T23:58:19.200Z,95.50
